createdAt,value
2018-09-02T00:00:04.800Z,15.01
2018-09-02T00:01:04.792Z,15.00
2018-09-02T00:02:04.783Z,15.12
2018-09-02T00:03:04.778Z,15.12
2018-09-02T00:04:04.775Z,15.15
2018-09-02T00:05:04.764Z,15.22
2018-09-02T00:06:04.756Z,15.18
2018-09-02T00:07:04.741Z,15.13
2018-09-02T00:08:04.732Z,15.18
2018-09-02T00:09:04.729Z,15.20
2018-09-02T00:10:04.721Z,15.31
2018-09-02T00:11:04.709Z,15.25
2018-09-02T00:12:04.699Z,15.28
2018-09-02T00:13:04.688Z,15.30
2018-09-02T00:14:04.682Z,15.33
2018-09-02T00:15:04.677Z,15.33
2018-09-02T00:16:04.661Z,15.31
2018-09-02T00:17:04.662Z,15.35
2018-09-02T00:18:04.645Z,15.34
2018-09-02T00:19:04.640Z,15.28
2018-09-02T00:20:04.630Z,15.28
2018-09-02T00:21:04.620Z,15.23
2018-09-02T00:22:04.610Z,15.25
2018-09-02T00:23:04.603Z,15.25
2018-09-02T00:24:04.593Z,15.28
2018-09-02T00:25:04.588Z,15.31
2018-09-02T00:26:04.577Z,15.37
2018-09-02T00:27:04.570Z,15.33
2018-09-02T00:28:04.563Z,15.43
2018-09-02T00:29:04.556Z,15.40
2018-09-02T00:30:04.540Z,15.38
2018-09-02T00:31:04.532Z,15.40
2018-09-02T00:32:04.523Z,15.40
2018-09-02T00:33:04.551Z,15.28
2018-09-02T00:34:04.558Z,15.22
2018-09-02T00:35:04.508Z,15.30
2018-09-02T00:36:04.495Z,15.28
2018-09-02T00:37:04.481Z,15.20
2018-09-02T00:38:04.472Z,15.16
2018-09-02T00:39:04.464Z,15.15
2018-09-02T00:40:04.456Z,15.23
2018-09-02T00:41:04.449Z,15.18
2018-09-02T00:42:04.440Z,15.20
2018-09-02T00:43:04.429Z,15.12
2018-09-02T00:44:04.423Z,15.22
2018-09-02T00:45:04.412Z,15.09
2018-09-02T00:46:04.402Z,15.07
2018-09-02T00:47:04.391Z,15.05
2018-09-02T00:48:04.381Z,15.04
2018-09-02T00:49:04.381Z,14.95
2018-09-02T00:50:04.366Z,15.03
2018-09-02T00:51:04.359Z,15.04
2018-09-02T00:52:04.353Z,15.03
2018-09-02T00:53:04.337Z,15.05
2018-09-02T00:54:04.329Z,14.87
2018-09-02T00:55:04.322Z,14.87
2018-09-02T00:56:04.315Z,14.87
2018-09-02T00:57:04.302Z,14.90
2018-09-02T00:58:04.300Z,14.98
2018-09-02T00:59:04.287Z,14.97
2018-09-02T01:00:04.287Z,14.97
2018-09-02T01:01:04.269Z,14.80
2018-09-02T01:02:04.256Z,14.87
2018-09-02T01:03:04.247Z,14.94
2018-09-02T01:04:04.240Z,14.97
2018-09-02T01:05:04.229Z,14.86
2018-09-02T01:07:04.213Z,15.01
2018-09-02T01:08:04.203Z,14.94
2018-09-02T01:09:04.198Z,14.97
2018-09-02T01:10:04.192Z,14.94
2018-09-02T01:11:04.176Z,15.01
2018-09-02T01:12:04.175Z,14.94
2018-09-02T01:13:04.157Z,14.94
2018-09-02T01:14:04.157Z,14.80
2018-09-02T01:15:04.148Z,14.91
2018-09-02T01:16:04.134Z,14.87
2018-09-02T01:17:04.126Z,14.80
2018-09-02T01:18:04.116Z,14.80
2018-09-02T01:19:04.110Z,14.83
2018-09-02T01:20:04.097Z,14.74
2018-09-02T01:21:04.086Z,14.72
2018-09-02T01:22:04.079Z,14.83
2018-09-02T01:23:04.159Z,14.83
2018-09-02T01:24:04.063Z,14.64
2018-09-02T01:25:04.053Z,14.71
2018-09-02T01:26:04.045Z,14.83
2018-09-02T01:27:04.030Z,14.85
2018-09-02T01:28:04.025Z,14.86
2018-09-02T01:29:04.012Z,14.79
2018-09-02T01:30:04.008Z,14.80
2018-09-02T01:31:04.000Z,14.74
2018-09-02T01:32:03.985Z,14.72
2018-09-02T01:33:03.974Z,14.80
2018-09-02T01:34:03.968Z,14.87
2018-09-02T01:35:03.956Z,14.80
2018-09-02T01:36:03.952Z,14.79
2018-09-02T01:37:03.937Z,14.79
2018-09-02T01:38:03.928Z,14.80
2018-09-02T01:39:03.921Z,14.82
2018-09-02T01:40:03.912Z,14.79
2018-09-02T01:41:03.901Z,14.75
2018-09-02T01:42:03.898Z,14.74
2018-09-02T01:43:03.889Z,14.79
2018-09-02T01:44:03.872Z,14.61
2018-09-02T01:45:03.867Z,14.61
2018-09-02T01:46:03.859Z,14.53
2018-09-02T01:47:03.849Z,14.60
2018-09-02T01:48:03.834Z,14.54
2018-09-02T01:49:03.828Z,14.53
2018-09-02T01:50:03.823Z,14.49
2018-09-02T01:51:03.807Z,14.46
2018-09-02T01:52:03.800Z,14.45
2018-09-02T01:53:03.792Z,14.45
2018-09-02T01:54:03.779Z,14.54
2018-09-02T01:55:03.772Z,14.42
2018-09-02T01:56:03.759Z,14.48
2018-09-02T01:57:03.749Z,14.45
2018-09-02T01:58:03.748Z,14.48
2018-09-02T01:59:03.736Z,14.48
2018-09-02T02:00:03.723Z,14.46
2018-09-02T02:01:03.716Z,14.46
2018-09-02T02:02:03.703Z,14.48
2018-09-02T02:03:03.694Z,14.41
2018-09-02T02:04:03.683Z,14.48
2018-09-02T02:05:03.678Z,14.42
2018-09-02T02:06:03.667Z,14.34
2018-09-02T02:07:03.655Z,14.44
2018-09-02T02:08:03.645Z,14.44
2018-09-02T02:09:03.636Z,14.48
2018-09-02T02:10:03.632Z,14.46
2018-09-02T02:11:03.618Z,14.45
2018-09-02T02:12:03.607Z,14.48
2018-09-02T02:13:03.601Z,14.54
2018-09-02T02:14:03.588Z,14.53
2018-09-02T02:15:03.584Z,14.48
2018-09-02T02:16:03.569Z,14.48
2018-09-02T02:17:03.559Z,14.38
2018-09-02T02:18:03.552Z,14.38
2018-09-02T02:19:03.540Z,14.36
2018-09-02T02:20:03.534Z,14.42
2018-09-02T02:21:03.526Z,14.52
2018-09-02T02:22:03.518Z,14.59
2018-09-02T02:23:03.525Z,14.46
2018-09-02T02:24:03.493Z,14.56
2018-09-02T02:25:03.484Z,14.60
2018-09-02T02:26:03.474Z,14.53
2018-09-02T02:27:03.470Z,14.61
2018-09-02T02:28:03.464Z,14.57
2018-09-02T02:29:03.446Z,14.52
2018-09-02T02:30:03.439Z,14.56
2018-09-02T02:31:03.431Z,14.60
2018-09-02T02:32:03.416Z,14.54
2018-09-02T02:33:03.409Z,14.52
2018-09-02T02:34:03.402Z,14.56
2018-09-02T02:35:03.394Z,14.61
2018-09-02T02:36:03.381Z,14.57
2018-09-02T02:37:03.367Z,14.63
2018-09-02T02:38:03.358Z,14.60
2018-09-02T02:39:03.349Z,14.60
2018-09-02T02:40:03.339Z,14.56
2018-09-02T02:41:03.337Z,14.57
2018-09-02T02:42:03.322Z,14.56
2018-09-02T02:43:03.313Z,14.57
2018-09-02T02:44:03.307Z,14.49
2018-09-02T02:45:03.295Z,14.48
2018-09-02T02:46:03.294Z,14.45
2018-09-02T02:47:03.275Z,14.42
2018-09-02T02:48:03.266Z,14.45
2018-09-02T02:49:03.255Z,14.44
2018-09-02T02:50:03.248Z,14.48
2018-09-02T02:51:03.240Z,14.44
2018-09-02T02:52:03.230Z,14.45
2018-09-02T02:53:03.225Z,14.57
2018-09-02T02:54:03.214Z,14.59
2018-09-02T02:55:03.199Z,14.53
2018-09-02T02:56:03.190Z,14.44
2018-09-02T02:57:03.180Z,14.56
2018-09-02T02:58:03.171Z,14.54
2018-09-02T02:59:03.167Z,14.57
2018-09-02T03:00:03.154Z,14.52
2018-09-02T03:01:03.144Z,14.56
2018-09-02T03:02:03.137Z,14.56
2018-09-02T03:03:03.126Z,14.61
2018-09-02T03:04:03.119Z,14.64
2018-09-02T03:05:03.112Z,14.57
2018-09-02T03:06:03.101Z,14.57
2018-09-02T03:07:03.088Z,14.66
2018-09-02T03:08:03.077Z,14.64
2018-09-02T03:09:03.069Z,14.54
2018-09-02T03:10:03.062Z,14.59
2018-09-02T03:11:03.054Z,14.57
2018-09-02T03:12:03.045Z,14.64
2018-09-02T03:13:03.036Z,14.61
2018-09-02T03:14:03.032Z,14.67
2018-09-02T03:15:03.014Z,14.63
2018-09-02T03:16:03.005Z,14.59
2018-09-02T03:17:03.005Z,14.60
2018-09-02T03:18:02.986Z,14.60
2018-09-02T03:19:02.976Z,14.57
2018-09-02T03:20:02.969Z,14.61
2018-09-02T03:21:02.957Z,14.59
2018-09-02T03:22:02.954Z,14.60
2018-09-02T03:23:02.944Z,14.63
2018-09-02T03:24:02.941Z,14.63
2018-09-02T03:25:02.921Z,14.61
2018-09-02T03:26:02.910Z,14.69
2018-09-02T03:27:02.906Z,14.61
2018-09-02T03:28:02.896Z,14.78
2018-09-02T03:29:02.885Z,14.71
2018-09-02T03:30:02.874Z,14.63
2018-09-02T03:31:02.868Z,14.71
2018-09-02T03:32:02.858Z,14.72
2018-09-02T03:33:02.846Z,14.71
2018-09-02T03:34:02.838Z,14.72
2018-09-02T03:35:02.836Z,14.72
2018-09-02T03:36:02.819Z,14.72
2018-09-02T03:37:02.813Z,14.78
2018-09-02T03:38:02.802Z,14.80
2018-09-02T03:39:02.794Z,14.83
2018-09-02T03:40:02.781Z,14.87
2018-09-02T03:41:02.779Z,14.80
2018-09-02T03:42:02.765Z,14.79
2018-09-02T03:43:02.751Z,14.93
2018-09-02T03:44:02.746Z,14.95
2018-09-02T03:45:02.732Z,14.80
2018-09-02T03:46:02.725Z,14.82
2018-09-02T03:47:02.716Z,14.80
2018-09-02T03:48:02.706Z,14.83
2018-09-02T03:49:02.701Z,14.94
2018-09-02T03:50:02.687Z,14.94
2018-09-02T03:51:02.682Z,14.90
2018-09-02T03:52:02.676Z,15.00
2018-09-02T03:53:02.665Z,14.94
2018-09-02T03:54:02.651Z,14.93
2018-09-02T03:55:02.647Z,14.93
2018-09-02T03:56:02.637Z,14.87
2018-09-02T03:57:02.625Z,14.95
2018-09-02T03:58:02.619Z,14.93
2018-09-02T03:59:02.611Z,14.78
2018-09-02T04:00:02.599Z,14.86
2018-09-02T04:01:02.598Z,14.87
2018-09-02T04:02:02.583Z,14.80
2018-09-02T04:03:02.568Z,14.71
2018-09-02T04:04:02.564Z,14.72
2018-09-02T04:05:02.551Z,14.71
2018-09-02T04:06:02.541Z,14.75
2018-09-02T04:07:02.533Z,14.72
2018-09-02T04:08:02.522Z,14.72
2018-09-02T04:09:02.512Z,14.71
2018-09-02T04:10:02.505Z,14.74
2018-09-02T04:11:02.502Z,14.64
2018-09-02T04:12:02.484Z,14.61
2018-09-02T04:13:02.481Z,14.61
2018-09-02T04:14:02.467Z,14.63
2018-09-02T04:15:02.457Z,14.57
2018-09-02T04:16:02.450Z,14.63
2018-09-02T04:17:02.443Z,14.64
2018-09-02T04:18:02.435Z,14.67
2018-09-02T04:19:02.424Z,14.61
2018-09-02T04:20:02.418Z,14.72
2018-09-02T04:21:02.404Z,14.71
2018-09-02T04:22:02.396Z,14.61
2018-09-02T04:23:02.389Z,14.60
2018-09-02T04:24:02.380Z,14.59
2018-09-02T04:25:02.365Z,14.63
2018-09-02T04:26:02.355Z,14.69
2018-09-02T04:27:02.349Z,14.71
2018-09-02T04:28:02.337Z,14.61
2018-09-02T04:29:02.330Z,14.67
2018-09-02T04:30:02.323Z,14.69
2018-09-02T04:31:02.313Z,14.74
2018-09-02T04:32:02.299Z,14.66
2018-09-02T04:33:02.292Z,14.66
2018-09-02T04:34:02.286Z,14.59
2018-09-02T04:35:02.278Z,14.64
2018-09-02T04:36:02.263Z,14.63
2018-09-02T04:37:02.254Z,14.61
2018-09-02T04:38:02.246Z,14.57
2018-09-02T04:39:02.241Z,14.61
2018-09-02T04:40:02.225Z,14.74
2018-09-02T04:41:02.218Z,14.74
2018-09-02T04:42:02.213Z,14.74
2018-09-02T04:43:02.205Z,14.80
2018-09-02T04:44:02.192Z,14.72
2018-09-02T04:45:02.186Z,14.75
2018-09-02T04:46:02.170Z,14.78
2018-09-02T04:47:02.161Z,14.67
2018-09-02T04:48:02.154Z,14.71
2018-09-02T04:49:02.148Z,14.61
2018-09-02T04:50:02.138Z,14.61
2018-09-02T04:51:02.125Z,14.63
2018-09-02T04:52:02.117Z,14.67
2018-09-02T04:53:02.108Z,14.69
2018-09-02T04:54:02.097Z,14.72
2018-09-02T04:55:02.086Z,14.72
2018-09-02T04:56:02.075Z,14.75
2018-09-02T04:57:02.069Z,14.74
2018-09-02T04:58:02.060Z,14.78
2018-09-02T04:59:02.052Z,14.75
2018-09-02T05:00:02.038Z,14.75
2018-09-02T05:01:02.029Z,14.83
2018-09-02T05:02:02.025Z,14.80
2018-09-02T05:03:02.015Z,14.85
2018-09-02T05:04:02.007Z,14.78
2018-09-02T05:05:01.998Z,14.80
2018-09-02T05:06:01.983Z,14.80
2018-09-02T05:07:01.974Z,14.79
2018-09-02T05:08:01.963Z,14.78
2018-09-02T05:09:01.956Z,14.83
2018-09-02T05:10:01.951Z,14.91
2018-09-02T05:11:01.944Z,14.94
2018-09-02T05:12:01.933Z,14.93
2018-09-02T05:13:01.919Z,14.94
2018-09-02T05:14:01.927Z,14.97
2018-09-02T05:15:01.905Z,14.95
2018-09-02T05:16:01.892Z,14.95
2018-09-02T05:17:01.885Z,14.95
2018-09-02T05:18:01.878Z,14.94
2018-09-02T05:19:01.864Z,14.97
2018-09-02T05:20:01.857Z,14.93
2018-09-02T05:21:01.850Z,14.90
2018-09-02T05:22:01.835Z,14.97
2018-09-02T05:23:01.830Z,14.97
2018-09-02T05:24:01.822Z,14.91
2018-09-02T05:25:01.815Z,15.01
2018-09-02T05:26:01.798Z,14.90
2018-09-02T05:27:01.791Z,14.98
2018-09-02T05:28:01.786Z,14.97
2018-09-02T05:29:01.771Z,14.83
2018-09-02T05:30:01.763Z,14.82
2018-09-02T05:31:01.754Z,14.82
2018-09-02T05:32:01.747Z,14.80
2018-09-02T05:33:01.734Z,14.83
2018-09-02T05:34:01.730Z,14.78
2018-09-02T05:35:01.717Z,14.83
2018-09-02T05:36:01.708Z,14.86
2018-09-02T05:37:01.804Z,14.79
2018-09-02T05:38:01.693Z,14.79
2018-09-02T05:39:01.679Z,14.79
2018-09-02T05:40:01.676Z,14.80
2018-09-02T05:41:01.666Z,14.85
2018-09-02T05:42:01.652Z,14.87
2018-09-02T05:43:01.643Z,14.91
2018-09-02T05:44:01.714Z,14.93
2018-09-02T05:45:01.623Z,14.94
2018-09-02T05:46:01.617Z,14.95
2018-09-02T05:47:01.606Z,14.95
2018-09-02T05:48:01.601Z,14.94
2018-09-02T05:49:01.587Z,14.91
2018-09-02T05:50:01.584Z,14.83
2018-09-02T05:51:01.575Z,14.94
2018-09-02T05:52:01.559Z,14.90
2018-09-02T05:53:01.553Z,14.97
2018-09-02T05:54:01.546Z,14.90
2018-09-02T05:55:01.533Z,14.90
2018-09-02T05:56:01.526Z,15.05
2018-09-02T05:57:01.519Z,14.97
2018-09-02T05:58:01.508Z,15.03
2018-09-02T05:59:01.496Z,15.01
2018-09-02T06:00:01.491Z,15.03
2018-09-02T06:01:01.483Z,15.03
2018-09-02T06:02:01.470Z,14.90
2018-09-02T06:03:01.457Z,14.90
2018-09-02T06:04:01.454Z,14.91
2018-09-02T06:05:01.453Z,15.04
2018-09-02T06:06:01.442Z,14.98
2018-09-02T06:07:01.425Z,15.03
2018-09-02T06:08:01.414Z,14.94
2018-09-02T06:09:01.414Z,15.03
2018-09-02T06:10:01.397Z,15.07
2018-09-02T06:11:01.384Z,15.09
2018-09-02T06:12:01.381Z,15.11
2018-09-02T06:13:01.366Z,15.11
2018-09-02T06:14:01.365Z,15.12
2018-09-02T06:15:01.354Z,15.25
2018-09-02T06:16:01.338Z,15.11
2018-09-02T06:17:01.332Z,15.13
2018-09-02T06:18:01.321Z,15.15
2018-09-02T06:19:01.312Z,15.11
2018-09-02T06:20:01.302Z,15.11
2018-09-02T06:21:01.296Z,15.07
2018-09-02T06:22:01.291Z,15.07
2018-09-02T06:23:01.277Z,15.07
2018-09-02T06:24:01.270Z,15.15
2018-09-02T06:25:01.261Z,15.09
2018-09-02T06:26:01.251Z,15.15
2018-09-02T06:27:01.241Z,15.13
2018-09-02T06:28:01.233Z,15.05
2018-09-02T06:29:01.222Z,15.15
2018-09-02T06:30:01.256Z,15.11
2018-09-02T06:31:01.205Z,15.16
2018-09-02T06:32:01.194Z,15.15
2018-09-02T06:33:01.316Z,15.09
2018-09-02T06:34:01.176Z,15.19
2018-09-02T06:35:01.169Z,15.09
2018-09-02T06:36:01.163Z,15.19
2018-09-02T06:37:01.152Z,15.07
2018-09-02T06:38:01.143Z,15.12
2018-09-02T06:39:01.130Z,15.15
2018-09-02T06:40:01.140Z,15.04
2018-09-02T06:41:01.119Z,15.15
2018-09-02T06:42:01.106Z,15.11
2018-09-02T06:43:01.100Z,15.01
2018-09-02T06:44:01.083Z,15.09
2018-09-02T06:45:01.075Z,15.15
2018-09-02T06:46:01.072Z,15.13
2018-09-02T06:47:01.063Z,15.07
2018-09-02T06:48:01.050Z,15.09
2018-09-02T06:49:01.042Z,15.09
2018-09-02T06:50:01.036Z,15.05
2018-09-02T06:51:01.023Z,15.09
2018-09-02T06:52:01.016Z,15.07
2018-09-02T06:53:01.005Z,15.13
2018-09-02T06:54:00.996Z,15.12
2018-09-02T06:55:00.985Z,15.12
2018-09-02T06:56:00.980Z,15.18
2018-09-02T06:57:00.968Z,15.20
2018-09-02T06:58:00.958Z,15.31
2018-09-02T06:59:00.948Z,15.20
2018-09-02T07:00:00.944Z,15.35
2018-09-02T07:01:00.935Z,15.34
2018-09-02T07:02:00.923Z,15.40
2018-09-02T07:03:00.912Z,15.49
2018-09-02T07:04:00.912Z,15.49
2018-09-02T07:05:00.899Z,15.55
2018-09-02T07:06:00.884Z,15.51
2018-09-02T07:07:00.876Z,15.58
2018-09-02T07:08:00.870Z,15.59
2018-09-02T07:09:00.863Z,15.62
2018-09-02T07:10:00.851Z,15.56
2018-09-02T07:11:00.840Z,15.56
2018-09-02T07:12:00.834Z,15.55
2018-09-02T07:13:00.821Z,15.64
2018-09-02T07:14:00.821Z,15.59
2018-09-02T07:15:00.810Z,15.59
2018-09-02T07:16:00.795Z,15.56
2018-09-02T07:17:00.787Z,15.53
2018-09-02T07:18:00.779Z,15.60
2018-09-02T07:19:00.774Z,15.56
2018-09-02T07:20:00.804Z,15.66
2018-09-02T07:21:00.749Z,15.74
2018-09-02T07:22:00.742Z,15.76
2018-09-02T07:23:00.736Z,15.86
2018-09-02T07:24:00.724Z,15.88
2018-09-02T07:25:00.719Z,15.85
2018-09-02T07:26:00.708Z,15.92
2018-09-02T07:27:00.697Z,15.91
2018-09-02T07:28:00.694Z,15.89
2018-09-02T07:29:00.680Z,15.98
2018-09-02T07:30:00.672Z,16.03
2018-09-02T07:31:00.666Z,15.93
2018-09-02T07:32:00.659Z,16.14
2018-09-02T07:33:00.645Z,16.11
2018-09-02T07:34:00.642Z,16.18
2018-09-02T07:35:00.629Z,16.29
2018-09-02T07:36:00.619Z,16.18
2018-09-02T07:37:00.611Z,16.22
2018-09-02T07:38:00.609Z,16.27
2018-09-02T07:39:00.601Z,16.22
2018-09-02T07:40:00.592Z,16.29
2018-09-02T07:41:00.584Z,16.18
2018-09-02T07:42:00.571Z,16.26
2018-09-02T07:43:00.567Z,16.25
2018-09-02T07:44:00.600Z,16.30
2018-09-02T07:45:00.546Z,16.22
2018-09-02T07:46:00.541Z,16.25
2018-09-02T07:47:00.530Z,16.16
2018-09-02T07:48:00.520Z,16.16
2018-09-02T07:49:00.519Z,16.11
2018-09-02T07:50:00.501Z,16.11
2018-09-02T07:51:00.494Z,16.13
2018-09-02T07:52:00.490Z,16.07
2018-09-02T07:53:00.482Z,16.25
2018-09-02T07:54:00.469Z,16.18
2018-09-02T07:55:00.459Z,16.29
2018-09-02T07:56:00.453Z,16.25
2018-09-02T07:57:00.450Z,16.22
2018-09-02T07:58:00.433Z,16.29
2018-09-02T07:59:00.427Z,16.36
2018-09-02T08:00:00.420Z,16.41
2018-09-02T08:01:00.415Z,16.47
2018-09-02T08:02:00.401Z,16.51
2018-09-02T08:03:00.396Z,16.47
2018-09-02T08:04:00.384Z,16.45
2018-09-02T08:05:00.381Z,16.48
2018-09-02T08:06:00.369Z,16.50
2018-09-02T08:07:00.359Z,16.55
2018-09-02T08:08:00.356Z,16.55
2018-09-02T08:09:00.349Z,16.54
2018-09-02T08:10:00.337Z,16.57
2018-09-02T08:11:00.326Z,16.60
2018-09-02T08:12:00.326Z,16.55
2018-09-02T08:13:00.355Z,16.51
2018-09-02T08:14:00.306Z,16.50
2018-09-02T08:15:00.294Z,16.51
2018-09-02T08:16:00.289Z,16.59
2018-09-02T08:17:00.277Z,16.60
2018-09-02T08:18:00.268Z,16.59
2018-09-02T08:19:00.265Z,16.57
2018-09-02T08:20:00.355Z,16.57
2018-09-02T08:21:00.246Z,16.50
2018-09-02T08:22:00.236Z,16.47
2018-09-02T08:23:00.229Z,16.48
2018-09-02T08:24:00.223Z,16.45
2018-09-02T08:25:00.210Z,16.37
2018-09-02T08:26:00.209Z,16.47
2018-09-02T08:27:00.196Z,16.44
2018-09-02T08:28:00.189Z,16.37
2018-09-02T08:29:00.185Z,16.41
2018-09-02T08:30:00.175Z,16.34
2018-09-02T08:31:00.165Z,16.40
2018-09-02T08:32:00.153Z,16.45
2018-09-02T08:33:00.155Z,16.47
2018-09-02T08:34:00.138Z,16.45
2018-09-02T08:35:00.133Z,16.52
2018-09-02T08:36:00.121Z,16.50
2018-09-02T08:37:00.113Z,16.51
2018-09-02T08:38:00.105Z,16.52
2018-09-02T08:39:00.131Z,16.55
2018-09-02T08:40:00.088Z,16.60
2018-09-02T08:41:00.080Z,16.59
2018-09-02T08:42:00.072Z,16.75
2018-09-02T08:43:00.068Z,16.70
2018-09-02T08:44:00.056Z,16.77
2018-09-02T08:45:00.049Z,16.78
2018-09-02T08:46:00.043Z,16.63
2018-09-02T08:47:00.036Z,16.75
2018-09-02T08:48:00.027Z,16.73
2018-09-02T08:49:00.021Z,16.81
2018-09-02T08:50:00.009Z,16.91
2018-09-02T08:50:59.999Z,16.81
2018-09-02T08:51:59.990Z,16.78
2018-09-02T08:52:59.985Z,16.80
2018-09-02T08:53:59.974Z,16.72
2018-09-02T08:54:59.972Z,16.70
2018-09-02T08:56:00.036Z,16.69
2018-09-02T08:56:59.957Z,16.66
2018-09-02T08:57:59.942Z,16.72
2018-09-02T08:58:59.935Z,16.85
2018-09-02T08:59:59.926Z,16.87
2018-09-02T09:00:59.919Z,17.12
2018-09-02T09:01:59.915Z,17.27
2018-09-02T09:02:59.903Z,17.54
2018-09-02T09:03:59.900Z,17.80
2018-09-02T09:04:59.890Z,17.99
2018-09-02T09:05:59.879Z,17.94
2018-09-02T09:06:59.878Z,17.96
2018-09-02T09:07:59.980Z,17.98
2018-09-02T09:09:00.034Z,17.86
2018-09-02T09:09:59.852Z,17.80
2018-09-02T09:10:59.846Z,17.73
2018-09-02T09:11:59.837Z,17.79
2018-09-02T09:12:59.832Z,17.71
2018-09-02T09:13:59.861Z,17.74
2018-09-02T09:14:59.815Z,17.62
2018-09-02T09:15:59.811Z,17.71
2018-09-02T09:16:59.821Z,17.77
2018-09-02T09:17:59.796Z,17.66
2018-09-02T09:18:59.789Z,17.65
2018-09-02T09:19:59.786Z,17.63
2018-09-02T09:20:59.767Z,17.70
2018-09-02T09:21:59.762Z,17.55
2018-09-02T09:22:59.757Z,17.40
2018-09-02T09:23:59.792Z,17.36
2018-09-02T09:24:59.769Z,17.35
2018-09-02T09:25:59.733Z,17.28
2018-09-02T09:26:59.724Z,17.25
2018-09-02T09:27:59.718Z,17.33
2018-09-02T09:28:59.715Z,17.18
2018-09-02T09:29:59.704Z,17.12
2018-09-02T09:30:59.697Z,17.15
2018-09-02T09:31:59.689Z,17.18
2018-09-02T09:32:59.683Z,17.10
2018-09-02T09:33:59.679Z,17.17
2018-09-02T09:34:59.665Z,17.12
2018-09-02T09:35:59.661Z,17.15
2018-09-02T09:36:59.652Z,17.10
2018-09-02T09:37:59.643Z,17.09
2018-09-02T09:38:59.638Z,17.15
2018-09-02T09:39:59.628Z,17.09
2018-09-02T09:40:59.625Z,17.15
2018-09-02T09:41:59.619Z,17.07
2018-09-02T09:42:59.605Z,17.10
2018-09-02T09:43:59.598Z,17.14
2018-09-02T09:44:59.595Z,17.03
2018-09-02T09:45:59.636Z,17.03
2018-09-02T09:46:59.574Z,17.07
2018-09-02T09:47:59.565Z,17.09
2018-09-02T09:48:59.557Z,17.10
2018-09-02T09:49:59.558Z,17.25
2018-09-02T09:50:59.546Z,17.25
2018-09-02T09:51:59.540Z,17.27
2018-09-02T09:52:59.533Z,17.38
2018-09-02T09:53:59.520Z,17.30
2018-09-02T09:54:59.520Z,17.45
2018-09-02T09:55:59.507Z,17.42
2018-09-02T09:56:59.504Z,17.47
2018-09-02T09:57:59.495Z,17.38
2018-09-02T09:58:59.489Z,17.42
2018-09-02T09:59:59.477Z,17.38
2018-09-02T10:00:59.469Z,17.43
2018-09-02T10:01:59.467Z,17.55
2018-09-02T10:02:59.455Z,17.36
2018-09-02T10:03:59.453Z,17.35
2018-09-02T10:04:59.439Z,17.46
2018-09-02T10:05:59.434Z,17.46
2018-09-02T10:06:59.425Z,17.46
2018-09-02T10:07:59.420Z,17.39
2018-09-02T10:08:59.417Z,17.46
2018-09-02T10:09:59.414Z,17.40
2018-09-02T10:10:59.399Z,17.38
2018-09-02T10:11:59.391Z,17.49
2018-09-02T10:12:59.384Z,17.40
2018-09-02T10:13:59.375Z,17.45
2018-09-02T10:14:59.367Z,17.42
2018-09-02T10:15:59.359Z,17.46
2018-09-02T10:16:59.351Z,17.54
2018-09-02T10:17:59.372Z,17.57
2018-09-02T10:18:59.345Z,17.65
2018-09-02T10:19:59.337Z,17.68
2018-09-02T10:20:59.321Z,17.77
2018-09-02T10:21:59.320Z,17.89
2018-09-02T10:22:59.308Z,18.09
2018-09-02T10:23:59.300Z,18.04
2018-09-02T10:24:59.293Z,18.17
2018-09-02T10:25:59.289Z,18.19
2018-09-02T10:26:59.281Z,18.11
2018-09-02T10:27:59.274Z,17.99
2018-09-02T10:28:59.267Z,17.96
2018-09-02T10:29:59.260Z,18.04
2018-09-02T10:30:59.256Z,17.87
2018-09-02T10:31:59.248Z,17.92
2018-09-02T10:32:59.235Z,17.77
2018-09-02T10:33:59.228Z,17.77
2018-09-02T10:34:59.225Z,17.76
2018-09-02T10:35:59.219Z,17.81
2018-09-02T10:36:59.210Z,17.70
2018-09-02T10:37:59.206Z,17.68
2018-09-02T10:38:59.198Z,17.66
2018-09-02T10:39:59.188Z,17.74
2018-09-02T10:40:59.203Z,17.74
2018-09-02T10:41:59.174Z,17.83
2018-09-02T10:42:59.165Z,17.94
2018-09-02T10:43:59.156Z,17.95
2018-09-02T10:44:59.150Z,17.95
2018-09-02T10:45:59.143Z,18.07
2018-09-02T10:46:59.137Z,18.20
2018-09-02T10:47:59.135Z,18.20
2018-09-02T10:48:59.125Z,18.31
2018-09-02T10:49:59.117Z,18.23
2018-09-02T10:50:59.120Z,18.23
2018-09-02T10:51:59.106Z,18.10
2018-09-02T10:52:59.100Z,18.16
2018-09-02T10:53:59.089Z,18.13
2018-09-02T10:54:59.081Z,17.92
2018-09-02T10:55:59.078Z,17.95
2018-09-02T10:56:59.122Z,17.76
2018-09-02T10:57:59.061Z,17.71
2018-09-02T10:58:59.057Z,17.83
2018-09-02T10:59:59.051Z,17.81
2018-09-02T11:00:59.043Z,17.79
2018-09-02T11:01:59.031Z,17.74
2018-09-02T11:02:59.028Z,17.66
2018-09-02T11:03:59.021Z,17.77
2018-09-02T11:04:59.013Z,17.80
2018-09-02T11:05:59.009Z,17.71
2018-09-02T11:06:58.999Z,17.80
2018-09-02T11:07:58.994Z,17.79
2018-09-02T11:08:58.985Z,17.87
2018-09-02T11:09:58.978Z,17.80
2018-09-02T11:10:58.971Z,17.96
2018-09-02T11:11:58.964Z,17.92
2018-09-02T11:12:58.971Z,17.96
2018-09-02T11:13:59.070Z,17.95
2018-09-02T11:14:58.939Z,17.96
2018-09-02T11:15:58.935Z,17.98
2018-09-02T11:16:58.927Z,18.11
2018-09-02T11:17:58.920Z,18.17
2018-09-02T11:18:58.911Z,18.21
2018-09-02T11:19:58.904Z,18.31
2018-09-02T11:20:58.905Z,18.31
2018-09-02T11:21:58.889Z,18.39
2018-09-02T11:22:58.885Z,18.36
2018-09-02T11:23:58.879Z,18.56
2018-09-02T11:24:58.880Z,18.49
2018-09-02T11:25:58.864Z,18.50
2018-09-02T11:26:58.856Z,18.65
2018-09-02T11:27:58.848Z,18.75
2018-09-02T11:28:58.840Z,18.78
2018-09-02T11:29:58.836Z,18.75
2018-09-02T11:30:58.835Z,18.89
2018-09-02T11:31:58.825Z,18.91
2018-09-02T11:32:58.817Z,18.97
2018-09-02T11:33:58.845Z,18.83
2018-09-02T11:34:58.807Z,18.72
2018-09-02T11:35:58.800Z,18.60
2018-09-02T11:36:58.789Z,18.53
2018-09-02T11:37:58.782Z,18.47
2018-09-02T11:38:58.782Z,18.39
2018-09-02T11:39:58.773Z,18.44
2018-09-02T11:40:58.762Z,18.41
2018-09-02T11:41:58.761Z,18.39
2018-09-02T11:42:58.760Z,18.35
2018-09-02T11:43:58.746Z,18.49
2018-09-02T11:44:58.769Z,18.44
2018-09-02T11:45:58.730Z,18.38
2018-09-02T11:46:58.792Z,18.53
2018-09-02T11:47:58.721Z,18.51
2018-09-02T11:48:58.716Z,18.57
2018-09-02T11:49:58.708Z,18.71
2018-09-02T11:50:58.702Z,18.79
2018-09-02T11:51:58.693Z,18.89
2018-09-02T11:52:58.689Z,18.93
2018-09-02T11:53:58.680Z,18.94
2018-09-02T11:54:58.671Z,18.94
2018-09-02T11:55:58.663Z,19.01
2018-09-02T11:56:58.661Z,19.07
2018-09-02T11:57:58.656Z,19.10
2018-09-02T11:58:58.647Z,19.07
2018-09-02T11:59:58.637Z,19.09
2018-09-02T12:00:58.637Z,19.15
2018-09-02T12:01:58.629Z,19.21
2018-09-02T12:02:58.620Z,19.23
2018-09-02T12:03:58.629Z,19.17
2018-09-02T12:04:58.701Z,19.13
2018-09-02T12:05:58.605Z,19.09
2018-09-02T12:06:58.594Z,19.09
2018-09-02T12:07:58.590Z,18.97
2018-09-02T12:08:58.593Z,18.96
2018-09-02T12:09:58.577Z,18.99
2018-09-02T12:10:58.576Z,19.05
2018-09-02T12:11:58.568Z,19.05
2018-09-02T12:12:58.557Z,19.02
2018-09-02T12:13:58.603Z,19.02
2018-09-02T12:14:58.693Z,19.05
2018-09-02T12:15:58.538Z,18.91
2018-09-02T12:16:58.536Z,19.01
2018-09-02T12:17:58.527Z,18.87
2018-09-02T12:18:58.520Z,18.75
2018-09-02T12:19:58.520Z,18.78
2018-09-02T12:20:58.512Z,18.83
2018-09-02T12:21:58.504Z,18.91
2018-09-02T12:22:58.495Z,18.91
2018-09-02T12:23:58.488Z,18.90
2018-09-02T12:24:58.482Z,18.93
2018-09-02T12:25:58.478Z,18.97
2018-09-02T12:26:58.475Z,19.06
2018-09-02T12:27:58.468Z,19.07
2018-09-02T12:28:58.462Z,19.01
2018-09-02T12:29:58.451Z,19.06
2018-09-02T12:30:58.449Z,19.09
2018-09-02T12:31:58.437Z,18.97
2018-09-02T12:32:58.432Z,19.01
2018-09-02T12:33:58.431Z,19.09
2018-09-02T12:34:58.420Z,19.07
2018-09-02T12:35:58.414Z,19.12
2018-09-02T12:36:58.407Z,19.30
2018-09-02T12:37:58.401Z,19.35
2018-09-02T12:38:58.394Z,19.39
2018-09-02T12:39:58.396Z,19.50
2018-09-02T12:40:58.381Z,19.50
2018-09-02T12:41:58.381Z,19.50
2018-09-02T12:42:58.375Z,19.50
2018-09-02T12:43:58.370Z,19.49
2018-09-02T12:44:58.363Z,19.55
2018-09-02T12:45:58.352Z,19.52
2018-09-02T12:46:58.345Z,19.52
2018-09-02T12:47:58.534Z,19.49
2018-09-02T12:48:58.333Z,19.45
2018-09-02T12:49:58.330Z,19.45
2018-09-02T12:50:58.324Z,19.45
2018-09-02T12:51:58.314Z,19.53
2018-09-02T12:52:58.310Z,19.53